Flight Track Log - Related Links

Times and Time Zones

All times are in EDT time to prevent confusion due to time zone crossing. See the EJA583 flight status page for this flight to view local times or setup timezone preferences in your user account.

Time Position Orientation Groundspeed Altitude Reporting Facility
EDT Latitude Longitude Course Direction KTS MPH feet Rate Location/Type
Tue 11:36:45 AM 42.3667 -71.0000 270° West 159 183 900  Level KA90
Tue 11:37:57 AM 42.4333 -70.9667 20° North 229 264 3,900 2,152 Climbing KA90
Tue 11:40:03 AM 42.4406 -70.7914 87° East 247 284 8,000 1,701 Climbing Boston Center
Tue 11:41:04 AM 42.3689 -70.7456 155° Southeast 229 264 9,200 1,587 Climbing Boston Center
Tue 11:42:00 AM 41.7827 -71.4916 270° West  Level Estimated
Tue 11:42:04 AM 42.2900 -70.7589 187° South 244 281 11,200  Level Boston Center
Tue 11:43:04 AM 42.2350 -70.8475 230° Southwest 262 302 13,200 2,529 Climbing Boston Center
Tue 11:44:05 AM 42.1928 -70.9661 244° Southwest 311 358 16,300 2,380 Climbing Boston Center
Tue 11:45:05 AM 42.1794 -71.0700 260° West 316 364 18,000 1,576 Climbing Boston Center
Tue 11:46:03 AM 42.1625 -71.2161 261° West 341 392 19,400 1,424 Climbing Boston Center
Tue 11:47:03 AM 42.1450 -71.3536 260° West 367 422 20,800 1,438 Climbing Boston Center
Tue 11:48:04 AM 42.1236 -71.4994 259° West 387 445 22,300 1,537 Climbing Boston Center
Tue 11:49:04 AM 42.0994 -71.6397 257° West 392 451 23,900 1,500 Climbing Boston Center
Tue 11:50:04 AM 42.0775 -71.7883 259° West 397 457 25,300 1,450 Climbing Boston Center
Tue 11:51:04 AM 42.0428 -71.9314 252° West 397 457 26,800 1,339 Climbing Boston Center
Tue 11:52:05 AM 41.9808 -72.0658 238° Southwest 408 470 28,000 1,091 Climbing Boston Center
Tue 11:53:05 AM 41.9269 -72.1889 240° Southwest 418 481 29,000 1,150 Climbing Boston Center
Tue 11:54:05 AM 41.8647 -72.3258 239° Southwest 429 494 30,300 1,289 Climbing Boston Center
Tue 11:55:06 AM 41.8003 -72.4653 238° Southwest 434 499 31,600 1,322 Climbing Boston Center
Tue 11:56:03 AM 41.7375 -72.5986 238° Southwest 434 499 32,900 1,322 Climbing Boston Center
Tue 11:57:04 AM 41.6769 -72.7347 239° Southwest 434 499 34,200 1,339 Climbing Boston Center
Tue 11:58:04 AM 41.6161 -72.8678 239° Southwest 429 494 35,600 1,488 Climbing Boston Center
Tue 11:59:05 AM 41.5550 -72.9950 237° Southwest 424 488 37,200 1,289 Climbing Boston Center
Tue 12:00:05 PM 41.5000 -73.1192 239° Southwest 410 472 38,200 893 Climbing Boston Center
Tue 12:01:06 PM 41.4536 -73.2183 238° Southwest 403 464 39,000 527 Climbing Boston Center
Tue 12:03:30 PM 41.2867 -73.5708 238° Southwest 413 475 40,000 294 Climbing New York Center
Tue 12:04:30 PM 41.2128 -73.7003 233° Southwest 432 497 40,000  Level New York Center
Tue 12:05:30 PM 41.1367 -73.8264 231° Southwest 444 511 40,000  Level New York Center
Tue 12:06:30 PM 41.0625 -73.9550 233° Southwest 444 511 40,000  Level New York Center
Tue 12:07:30 PM 40.9861 -74.0833 232° Southwest 450 518 40,000  Level New York Center
Tue 12:08:30 PM 40.9119 -74.1950 229° Southwest 450 518 40,000  Level New York Center
Tue 12:09:30 PM 40.8394 -74.3231 233° Southwest 450 518 40,000  Level New York Center
Tue 12:10:30 PM 40.7628 -74.4478 231° Southwest 450 518 40,000  Level New York Center
Tue 12:11:30 PM 40.6858 -74.5722 231° Southwest 450 518 40,000  Level New York Center
Tue 12:12:30 PM 40.6111 -74.6939 231° Southwest 450 518 40,000  Level New York Center
Tue 12:13:30 PM 40.5342 -74.8125 230° Southwest 445 512 40,000  Level New York Center
Tue 12:14:30 PM 40.4422 -74.9406 227° Southwest 440 506 40,000  Level New York Center
Tue 12:15:30 PM 40.3631 -75.0556 228° Southwest 440 506 40,000  Level New York Center
Tue 12:16:30 PM 40.2817 -75.1703 227° Southwest 435 501 40,000  Level New York Center
Tue 12:17:30 PM 40.2003 -75.2847 227° Southwest 435 501 40,000  Level New York Center
Tue 12:18:30 PM 40.1206 -75.3992 228° Southwest 430 495 40,000  Level New York Center
Tue 12:19:30 PM 40.0392 -75.5103 226° Southwest 430 495 40,000  Level New York Center
Tue 12:20:30 PM 39.9575 -75.6239 227° Southwest 425 489 40,000  Level New York Center
Tue 12:21:30 PM 39.8797 -75.7375 228° Southwest 425 489 40,000  Level New York Center
Tue 12:22:30 PM 39.8078 -75.8567 232° Southwest 425 489 40,000  Level New York Center
Tue 12:23:30 PM 39.7339 -75.9728 230° Southwest 425 489 40,000  Level New York Center
Tue 12:24:30 PM 39.6581 -76.0886 230° Southwest 425 489 40,000  Level New York Center
Tue 12:26:26 PM 39.5283 -76.2964 231° Southwest 452 520 40,000  Level Washington Center
Tue 12:27:23 PM 39.4503 -76.4086 228° Southwest 432 497 40,000  Level Washington Center
Tue 12:28:24 PM 39.3767 -76.5233 230° Southwest 427 491 40,000  Level Washington Center
Tue 12:29:25 PM 39.3028 -76.6403 231° Southwest 427 491 40,000  Level Washington Center
Tue 12:30:26 PM 39.2308 -76.7517 230° Southwest 427 491 40,000  Level Washington Center
Tue 12:31:26 PM 39.1589 -76.8658 231° Southwest 427 491 40,000  Level Washington Center
Tue 12:32:26 PM 39.0847 -76.9794 230° Southwest 427 491 40,000  Level Washington Center
Tue 12:33:24 PM 39.0042 -77.0847 225° Southwest 427 491 40,000  Level Washington Center
Tue 12:34:25 PM 38.9156 -77.1764 219° Southwest 414 476 40,000  Level Washington Center
Tue 12:35:25 PM 38.8267 -77.2758 221° Southwest 419 482 40,000  Level Washington Center
Tue 12:36:26 PM 38.7356 -77.3747 220° Southwest 419 482 40,000  Level Washington Center
Tue 12:37:24 PM 38.6464 -77.4708 220° Southwest 424 488 40,000  Level Washington Center
Tue 12:38:25 PM 38.5553 -77.5697 220° Southwest 424 488 40,000  Level Washington Center
Tue 12:39:25 PM 38.4597 -77.6758 221° Southwest 419 482 40,000  Level Washington Center
Tue 12:40:25 PM 38.3703 -77.7711 220° Southwest 424 488 40,000  Level Washington Center
Tue 12:41:26 PM 38.2808 -77.8692 221° Southwest 424 488 40,000  Level Washington Center
Tue 12:42:26 PM 38.1914 -77.9642 220° Southwest 422 486 40,000  Level Washington Center
Tue 12:43:26 PM 38.1192 -78.0411 220° Southwest 427 491 40,000  Level Washington Center
Tue 12:44:25 PM 38.0317 -78.1358 220° Southwest 426 490 40,000  Level Washington Center
Tue 12:45:26 PM 37.9272 -78.2403 218° Southwest 416 479 40,000  Level Washington Center
Tue 12:46:26 PM 37.8311 -78.3314 217° Southwest 416 479 40,000  Level Washington Center
Tue 12:47:25 PM 37.7461 -78.4097 216° Southwest 426 490 40,000  Level Washington Center
Tue 12:48:25 PM 37.6542 -78.4981 217° Southwest 426 490 40,000  Level Washington Center
Tue 12:49:26 PM 37.5581 -78.5861 216° Southwest 426 490 40,000  Level Washington Center
Tue 12:50:26 PM 37.4642 -78.6742 217° Southwest 426 490 40,000  Level Washington Center
Tue 12:51:23 PM 37.3594 -78.7744 217° Southwest 432 497 40,000  Level Washington Center
Tue 12:52:24 PM 37.2653 -78.8617 216° Southwest 432 497 40,000  Level Washington Center
Tue 12:53:25 PM 37.1689 -78.9489 216° Southwest 432 497 40,000  Level Washington Center
Tue 12:54:25 PM 37.0725 -79.0358 216° Southwest 432 497 40,000  Level Washington Center
Tue 12:55:24 PM 36.9803 -79.1253 218° Southwest 432 497 40,000  Level Washington Center
Tue 12:56:24 PM 36.8858 -79.2092 215° Southwest 427 491 40,000  Level Washington Center
Tue 12:57:25 PM 36.7978 -79.2908 217° Southwest 427 491 40,000  Level Washington Center
Tue 12:58:26 PM 36.7033 -79.3794 217° Southwest 427 491 40,000  Level Washington Center
Tue 12:59:26 PM 36.6089 -79.4656 216° Southwest 427 491 40,000  Level Washington Center
Tue 01:00:24 PM 36.5142 -79.5539 217° Southwest 427 491 40,000  Level Washington Center
Tue 01:03:21 PM 36.2294 -79.8072 216° Southwest 413 475 40,000  Level Atlanta Center
Tue 01:04:21 PM 36.1383 -79.8892 216° Southwest 401 461 40,000  Level Atlanta Center
Tue 01:05:21 PM 36.0431 -79.9711 215° Southwest 400 460 40,000  Level Atlanta Center
Tue 01:06:21 PM 35.9386 -80.0275 204° Southwest 430 495 40,000  Level Atlanta Center
Tue 01:07:21 PM 35.8400 -80.0786 203° Southwest 430 495 40,000  Level Atlanta Center
Tue 01:08:21 PM 35.7311 -80.1325 202° Southwest 424 488 40,000  Level Atlanta Center
Tue 01:09:21 PM 35.6119 -80.1917 202° Southwest 429 494 40,000  Level Atlanta Center
Tue 01:10:21 PM 35.4992 -80.2506 203° Southwest 429 494 40,000  Level Atlanta Center
Tue 01:11:21 PM 35.4006 -80.2986 202° Southwest 429 494 40,000  Level Atlanta Center
Tue 01:12:21 PM 35.2897 -80.3569 203° Southwest 429 494 40,000  Level Atlanta Center
Tue 01:13:21 PM 35.1806 -80.4100 202° Southwest 429 494 40,000  Level Atlanta Center
Tue 01:14:21 PM 35.0717 -80.4656 203° Southwest 429 494 40,000  Level Atlanta Center
Tue 01:15:21 PM 34.9461 -80.5292 203° Southwest 429 494 40,000  Level Atlanta Center
Tue 01:17:42 PM 34.6989 -80.6503 202° Southwest 424 488 40,000  Level Jacksonville Center
Tue 01:18:42 PM 34.5728 -80.7139 203° Southwest 440 506 40,000  Level Jacksonville Center
Tue 01:19:42 PM 34.4694 -80.7594 200° South 425 489 40,000  Level Jacksonville Center
Tue 01:20:42 PM 34.3658 -80.8072 201° Southwest 416 479 40,000  Level Jacksonville Center
Tue 01:21:42 PM 34.2644 -80.8600 203° Southwest 405 466 40,000  Level Jacksonville Center
Tue 01:22:42 PM 34.1569 -80.9125 202° Southwest 399 459 40,000  Level Jacksonville Center
Tue 01:23:42 PM 34.0469 -80.9628 201° Southwest 414 476 40,000  Level Jacksonville Center
Tue 01:24:42 PM 33.9372 -81.0153 202° Southwest 420 483 40,000  Level Jacksonville Center
Tue 01:25:42 PM 33.8336 -81.0650 202° Southwest 420 483 40,000  Level Jacksonville Center
Tue 01:26:42 PM 33.7319 -81.1144 202° Southwest 407 468 40,000  Level Jacksonville Center
Tue 01:27:42 PM 33.6325 -81.1639 202° Southwest 401 461 40,000  Level Jacksonville Center
Tue 01:28:42 PM 33.5289 -81.2158 203° Southwest 401 461 40,000  Level Jacksonville Center
Tue 01:29:42 PM 33.4211 -81.2675 202° Southwest 406 467 40,000  Level Jacksonville Center
Tue 01:30:42 PM 33.3133 -81.3217 203° Southwest 411 473 40,000  Level Jacksonville Center
Tue 01:31:42 PM 33.2094 -81.3731 202° Southwest 411 473 40,000  Level Jacksonville Center
Tue 01:32:42 PM 33.1036 -81.4244 202° Southwest 411 473 40,000  Level Jacksonville Center
Tue 01:33:42 PM 32.9958 -81.4758 202° Southwest 411 473 40,000  Level Jacksonville Center
Tue 01:34:42 PM 32.8900 -81.5294 203° Southwest 417 480 40,000  Level Jacksonville Center
Tue 01:35:42 PM 32.7839 -81.5781 201° Southwest 417 480 40,000  Level Jacksonville Center
Tue 01:36:42 PM 32.6800 -81.6289 202° Southwest 417 480 40,000  Level Jacksonville Center
Tue 01:37:42 PM 32.5719 -81.6847 204° Southwest 417 480 40,000  Level Jacksonville Center
Tue 01:38:42 PM 32.4661 -81.7353 202° Southwest 417 480 40,000  Level Jacksonville Center
Tue 01:39:42 PM 32.3581 -81.7833 201° Southwest 417 480 40,000  Level Jacksonville Center
Tue 01:40:42 PM 32.2536 -81.8019 189° South 412 474 40,000  Level Jacksonville Center
Tue 01:41:42 PM 32.1306 -81.8206 187° South 412 474 40,000  Level Jacksonville Center
Tue 01:42:42 PM 32.0181 -81.8414 189° South 412 474 40,000  Level Jacksonville Center
Tue 01:43:42 PM 31.9033 -81.8597 188° South 412 474 40,000  Level Jacksonville Center
Tue 01:44:42 PM 31.8014 -81.8756 188° South 412 474 40,000  Level Jacksonville Center
Tue 01:45:42 PM 31.6742 -81.8942 187° South 412 474 40,000  Level Jacksonville Center
Tue 01:46:42 PM 31.5614 -81.9125 188° South 412 474 40,000  Level Jacksonville Center
Tue 01:47:42 PM 31.4489 -81.9306 188° South 412 474 40,000  Level Jacksonville Center
Tue 01:48:42 PM 31.3361 -81.9489 188° South 412 474 40,000  Level Jacksonville Center
Tue 01:49:42 PM 31.2217 -81.9694 189° South 412 474 40,000  Level Jacksonville Center
Tue 01:50:42 PM 31.1089 -81.9875 188° South 417 480 40,000  Level Jacksonville Center
Tue 01:51:42 PM 30.9942 -82.0056 188° South 417 480 40,000  Level Jacksonville Center
Tue 01:52:42 PM 30.8878 -82.0236 188° South 417 480 40,000  Level Jacksonville Center
Tue 01:53:42 PM 30.7731 -82.0414 188° South 425 489 40,000  Level Jacksonville Center
Tue 01:54:42 PM 30.6606 -82.0594 188° South 425 489 40,000  Level Jacksonville Center
Tue 01:55:42 PM 30.5333 -82.0750 186° South 425 489 40,000  Level Jacksonville Center
Tue 01:56:42 PM 30.4186 -82.0903 187° South 425 489 40,000  Level Jacksonville Center
Tue 01:57:42 PM 30.3058 -82.1106 189° South 420 483 40,000 -450 Level Jacksonville Center
Tue 01:58:42 PM 30.1892 -82.1261 187° South 425 489 39,100 -1,050 Descending Jacksonville Center
Tue 01:59:42 PM 30.0700 -82.1053 171° South 431 496 37,900 -1,250 Descending Jacksonville Center
Tue 02:00:42 PM 29.9614 -82.0894 173° South 431 496 36,600 -1,350 Descending Jacksonville Center
Tue 02:01:42 PM 29.8483 -82.0689 171° South 425 489 35,200 -800 Descending Jacksonville Center
Tue 02:02:42 PM 29.7272 -82.0386 168° South 413 475 35,000 -100 Descending Jacksonville Center
Tue 02:03:42 PM 29.6225 -82.0231 173° South 413 475 35,000  Level Jacksonville Center
Tue 02:04:42 PM 29.5097 -82.0000 170° South 413 475 35,000  Level Jacksonville Center
Tue 02:05:42 PM 29.4011 -81.9772 170° South 407 468 35,000  Level Jacksonville Center
Tue 02:06:42 PM 29.2989 -82.0092 195° South 383 441 35,000  Level Jacksonville Center
Tue 02:07:42 PM 29.1992 -82.0767 211° Southwest 371 427 35,000  Level Jacksonville Center
Tue 02:08:42 PM 29.1014 -82.1392 209° Southwest 387 445 35,000  Level Jacksonville Center
Tue 02:09:42 PM 29.0058 -82.2136 214° Southwest 402 463 35,000  Level Jacksonville Center
Tue 02:10:42 PM 28.9122 -82.2853 214° Southwest 413 475 35,000  Level Jacksonville Center
Tue 02:11:42 PM 28.8375 -82.3403 213° Southwest 413 475 35,000  Level Jacksonville Center
Tue 02:12:42 PM 28.7292 -82.4192 213° Southwest 413 475 35,000  Level Jacksonville Center
Tue 02:13:42 PM 28.6250 -82.5000 214° Southwest 413 475 35,000  Level Jacksonville Center
Tue 02:14:42 PM 28.5272 -82.5689 212° Southwest 418 481 35,000  Level Jacksonville Center
Tue 02:15:42 PM 28.4314 -82.6400 213° Southwest 418 481 35,000  Level Jacksonville Center
Tue 02:17:40 PM 28.2108 -82.6517 183° South 401 461 35,000  Level Miami Center
Tue 02:18:40 PM 28.0950 -82.6317 171° South 411 473 35,000  Level Miami Center
Tue 02:19:40 PM 27.9908 -82.6264 177° South 417 480 35,000 -250 Level Miami Center
Tue 02:20:40 PM 27.8717 -82.6319 182° South 422 486 34,500 -1,250 Descending Miami Center
Tue 02:21:40 PM 27.7464 -82.6350 181° South 415 478 32,500 -2,050 Descending Miami Center
Tue 02:22:40 PM 27.6275 -82.6361 180° South 425 489 30,400 -2,150 Descending Miami Center
Tue 02:23:40 PM 27.5125 -82.6394 181° South 420 483 28,200 -2,200 Descending Miami Center
Tue 02:24:40 PM 27.4078 -82.6483 184° South 420 483 26,000 -2,150 Descending Miami Center
Tue 02:25:40 PM 27.2883 -82.6656 187° South 428 493 23,900 -2,200 Descending Miami Center
Tue 02:26:40 PM 27.1603 -82.6847 188° South 428 493 21,600 -2,350 Descending Miami Center
Tue 02:27:40 PM 27.0531 -82.7028 189° South 417 480 19,200 -2,300 Descending Miami Center
Tue 02:28:40 PM 26.9514 -82.6883 173° South 372 428 17,000 -2,250 Descending Miami Center
Tue 02:29:40 PM 26.8525 -82.6578 165° South 372 428 14,700 -2,350 Descending Miami Center
Tue 02:30:40 PM 26.7556 -82.6275 164° South 366 421 12,300 -1,850 Descending Miami Center
Tue 02:31:40 PM 26.6669 -82.6022 166° South 359 413 11,000 -650 Descending Miami Center
Tue 02:32:40 PM 26.5822 -82.5747 164° South 334 384 11,000  Level Miami Center
Tue 02:33:40 PM 26.4975 -82.5544 168° South 321 369 11,000  Level Miami Center
Tue 02:34:40 PM 26.4156 -82.5158 157° South 314 361 11,000  Level Miami Center
Tue 02:35:40 PM 26.3397 -82.4797 157° South 304 350 11,000  Level Miami Center
Tue 02:36:40 PM 26.2581 -82.4319 152° Southeast 314 361 11,000 -150 Level Miami Center
Tue 02:37:40 PM 26.1867 -82.3892 152° Southeast 320 368 10,700 -1,150 Descending Miami Center
Tue 02:38:40 PM 26.1408 -82.3292 130° Southeast 281 323 8,700 -2,500 Descending Miami Center
Tue 02:39:40 PM 26.1253 -82.2453 102° East 263 303 5,700 -3,000 Descending Miami Center
Tue 02:41:00 PM 26.1350 -82.0806 86° East  Level Estimated
Tue 02:48:00 PM 26.1524 -81.7756 86° East  Level Estimated
Tue 02:49:00 PM 26.1524 -81.7756 36° Northeast  Level Estimated
Tue 02:50:00 PM 26.1524 -81.7756 36° Northeast  Level Estimated
Tue 02:51:00 PM 26.1524 -81.7756 36° Northeast  Level Estimated
Tue 02:52:00 PM 26.1524 -81.7756 36° Northeast  Level Estimated
Tue 02:53:00 PM 26.1524 -81.7756 36° Northeast  Level Estimated
Tue 02:54:00 PM 26.1524 -81.7756 36° Northeast  Level Estimated
Tue 02:55:00 PM 26.1524 -81.7756 36° Northeast  Level Estimated
Tue 02:56:00 PM 26.1524 -81.7756 36° Northeast  Level Estimated

Login

Don't have an account? Register now (free) for customized features, flight alerts, and more!